createdAt,value
2022-12-29T00:00:18.945Z,98593.16
2022-12-29T00:02:45.933Z,98588.81
2022-12-29T00:05:12.994Z,98584.63
2022-12-29T00:07:39.771Z,98576.91
2022-12-29T00:10:07.205Z,98576.00
2022-12-29T00:12:53.960Z,98575.00
2022-12-29T00:15:39.092Z,98577.63
2022-12-29T00:18:07.427Z,98573.38
2022-12-29T00:20:58.666Z,98574.16
2022-12-29T00:23:44.188Z,98567.22
2022-12-29T00:26:36.918Z,98558.59
2022-12-29T00:29:22.612Z,98530.44
2022-12-29T00:32:08.218Z,98547.38
2022-12-29T00:34:53.490Z,98538.88
2022-12-29T00:37:40.285Z,98548.16
2022-12-29T00:40:26.495Z,98539.59
2022-12-29T00:43:12.049Z,98538.75
2022-12-29T00:45:42.640Z,98540.31
2022-12-29T00:48:09.509Z,98544.69
2022-12-29T00:50:36.293Z,98541.03
2022-12-29T00:53:03.070Z,98537.97
2022-12-29T00:55:29.953Z,98548.81
2022-12-29T00:57:56.709Z,98540.97
2022-12-29T01:00:23.618Z,98541.16
2022-12-29T01:02:50.425Z,98538.53
2022-12-29T01:05:17.333Z,98544.50
2022-12-29T01:07:45.226Z,98539.25
2022-12-29T01:10:12.076Z,98534.13
2022-12-29T01:12:42.351Z,98541.66
2022-12-29T01:15:12.352Z,98532.53
2022-12-29T01:17:39.436Z,98540.06
2022-12-29T01:20:06.999Z,98544.16
2022-12-29T01:22:34.004Z,98543.44
2022-12-29T01:25:00.831Z,98552.78
2022-12-29T01:27:28.483Z,98548.44
2022-12-29T01:29:55.276Z,98552.66
2022-12-29T01:32:22.082Z,98529.19
2022-12-29T01:34:48.865Z,98550.94
2022-12-29T01:37:15.674Z,98549.25
2022-12-29T01:39:42.473Z,98548.09
2022-12-29T01:42:18.363Z,98549.00
2022-12-29T01:44:57.287Z,98545.59
2022-12-29T01:47:54.149Z,98558.28
2022-12-29T01:50:25.481Z,98554.81
2022-12-29T01:53:01.622Z,98543.81
2022-12-29T01:55:44.210Z,98546.31
2022-12-29T01:58:12.685Z,98546.31
2022-12-29T02:00:39.650Z,98540.09
2022-12-29T02:03:09.298Z,98538.41
2022-12-29T02:06:03.883Z,98535.13
2022-12-29T02:08:31.168Z,98535.59
2022-12-29T02:11:00.864Z,98538.91
2022-12-29T02:13:28.821Z,98539.03
2022-12-29T02:16:27.806Z,98535.47
2022-12-29T02:19:37.051Z,98533.81
2022-12-29T02:22:29.855Z,98533.69
2022-12-29T02:25:41.042Z,98533.63
2022-12-29T02:28:22.923Z,98519.09
2022-12-29T02:31:09.720Z,98524.25
2022-12-29T02:33:54.338Z,98515.66
2022-12-29T02:36:38.960Z,98520.69
2022-12-29T02:39:35.852Z,98512.03
2022-12-29T02:42:21.913Z,98517.22
2022-12-29T02:45:07.152Z,98514.66
2022-12-29T02:47:53.268Z,98508.41
2022-12-29T02:50:52.426Z,98495.72
2022-12-29T02:53:40.423Z,98504.22
2022-12-29T02:56:07.434Z,98492.31
2022-12-29T02:58:34.228Z,98509.19
2022-12-29T03:01:31.778Z,98500.59
2022-12-29T03:04:55.172Z,98498.66
2022-12-29T03:07:45.349Z,98505.59
2022-12-29T03:10:57.034Z,98496.00
2022-12-29T03:14:01.078Z,98509.69
2022-12-29T03:16:49.251Z,98501.75
2022-12-29T03:19:22.706Z,98493.00
2022-12-29T03:22:14.945Z,98485.13
2022-12-29T03:24:47.740Z,98487.84
2022-12-29T03:27:21.758Z,98464.78
2022-12-29T03:29:55.366Z,98475.09
2022-12-29T03:32:32.975Z,98476.69
2022-12-29T03:35:00.812Z,98480.59
2022-12-29T03:37:35.921Z,98472.09
2022-12-29T03:40:03.279Z,98463.78
2022-12-29T03:42:33.694Z,98469.00
2022-12-29T03:45:01.588Z,98466.53
2022-12-29T03:47:28.392Z,98465.78
2022-12-29T03:49:55.138Z,98472.84
2022-12-29T03:52:21.875Z,98470.72
2022-12-29T03:54:48.707Z,98458.19
2022-12-29T03:57:15.451Z,98449.16
2022-12-29T03:59:42.206Z,98447.84
2022-12-29T04:02:09.046Z,98446.22
2022-12-29T04:04:35.896Z,98451.84
2022-12-29T04:07:02.838Z,98454.63
2022-12-29T04:09:30.763Z,98456.06
2022-12-29T04:11:57.672Z,98447.84
2022-12-29T04:14:24.481Z,98456.97
2022-12-29T04:16:51.271Z,98457.22
2022-12-29T04:19:18.050Z,98462.22
2022-12-29T04:21:45.379Z,98460.22
2022-12-29T04:24:13.846Z,98457.25
2022-12-29T04:26:41.426Z,98460.41
2022-12-29T04:29:08.440Z,98458.97
2022-12-29T04:31:35.359Z,98464.81
2022-12-29T04:34:02.389Z,98467.09
2022-12-29T04:36:30.216Z,98470.59
2022-12-29T04:38:57.369Z,98481.53
2022-12-29T04:41:24.643Z,98471.94
2022-12-29T04:43:51.609Z,98461.25
2022-12-29T04:46:18.501Z,98471.94
2022-12-29T04:48:45.456Z,98469.34
2022-12-29T04:51:12.241Z,98456.56
2022-12-29T04:53:39.522Z,98466.25
2022-12-29T04:56:06.772Z,98472.31
2022-12-29T04:58:33.566Z,98474.88
2022-12-29T05:01:00.318Z,98475.59
2022-12-29T05:03:27.227Z,98468.00
2022-12-29T05:05:58.182Z,98473.94
2022-12-29T05:08:28.349Z,98477.00
2022-12-29T05:10:55.453Z,98482.28
2022-12-29T05:13:22.352Z,98488.13
2022-12-29T05:15:52.756Z,98488.38
2022-12-29T05:18:20.340Z,98486.38
2022-12-29T05:20:48.514Z,98486.97
2022-12-29T05:23:16.406Z,98478.13
2022-12-29T05:25:46.563Z,98481.19
2022-12-29T05:28:14.206Z,98480.44
2022-12-29T05:30:41.554Z,98488.19
2022-12-29T05:33:08.418Z,98474.50
2022-12-29T05:35:35.261Z,98477.56
2022-12-29T05:38:02.053Z,98471.97
2022-12-29T05:40:28.828Z,98480.41
2022-12-29T05:42:55.634Z,98470.28
2022-12-29T05:45:22.415Z,98484.25
2022-12-29T05:47:49.208Z,98484.91
2022-12-29T05:50:16.066Z,98482.91
2022-12-29T05:52:44.944Z,98482.72
2022-12-29T05:55:12.542Z,98474.19
2022-12-29T05:57:39.604Z,98451.38
2022-12-29T06:00:07.818Z,98466.09
2022-12-29T06:02:34.844Z,98468.31
2022-12-29T06:05:01.824Z,98468.22
2022-12-29T06:07:29.041Z,98468.69
2022-12-29T06:09:55.859Z,98471.75
2022-12-29T06:12:22.662Z,98459.78
2022-12-29T06:14:49.583Z,98461.09
2022-12-29T06:17:16.400Z,98452.75
2022-12-29T06:19:44.948Z,98447.84
2022-12-29T06:22:13.181Z,98441.25
2022-12-29T06:24:40.474Z,98434.50
2022-12-29T06:27:07.419Z,98436.34
2022-12-29T06:29:35.897Z,98433.09
2022-12-29T06:32:02.718Z,98429.00
2022-12-29T06:34:29.680Z,98447.31
2022-12-29T06:36:56.492Z,98446.66
2022-12-29T06:39:23.278Z,98439.50
2022-12-29T06:41:54.169Z,98458.19
2022-12-29T06:44:24.445Z,98461.88
2022-12-29T06:46:51.580Z,98455.22
2022-12-29T06:49:18.596Z,98460.38
2022-12-29T06:51:45.448Z,98455.31
2022-12-29T06:54:12.263Z,98454.63
2022-12-29T06:56:39.044Z,98436.53
2022-12-29T06:59:06.088Z,98457.38
2022-12-29T07:01:33.116Z,98455.72
2022-12-29T07:04:00.057Z,98441.84
2022-12-29T07:06:26.896Z,98436.84
2022-12-29T07:08:56.025Z,98446.88
2022-12-29T07:11:22.923Z,98443.03
2022-12-29T07:13:49.940Z,98443.06
2022-12-29T07:16:17.027Z,98448.34
2022-12-29T07:18:44.005Z,98446.50
2022-12-29T07:21:11.261Z,98438.94
2022-12-29T07:23:38.056Z,98438.16
2022-12-29T07:26:08.586Z,98431.25
2022-12-29T07:28:36.805Z,98438.34
2022-12-29T07:31:03.665Z,98434.06
2022-12-29T07:33:31.474Z,98424.91
2022-12-29T07:35:59.717Z,98442.19
2022-12-29T07:38:26.502Z,98438.75
2022-12-29T07:40:59.147Z,98446.34
2022-12-29T07:43:26.651Z,98443.03
2022-12-29T07:45:53.809Z,98457.84
2022-12-29T07:48:20.776Z,98449.34
2022-12-29T07:50:47.607Z,98439.00
2022-12-29T07:53:14.514Z,98452.03
2022-12-29T07:55:41.608Z,98451.84
2022-12-29T07:58:08.542Z,98430.31
2022-12-29T08:00:35.395Z,98461.72
2022-12-29T08:03:02.409Z,98453.38
2022-12-29T08:05:29.168Z,98462.72
2022-12-29T08:07:55.984Z,98466.31
2022-12-29T08:10:22.730Z,98462.97
2022-12-29T08:12:50.871Z,98466.56
2022-12-29T08:15:17.809Z,98458.88
2022-12-29T08:17:44.701Z,98465.09
2022-12-29T08:20:11.579Z,98467.72
2022-12-29T08:22:38.475Z,98480.00
2022-12-29T08:25:05.734Z,98469.75
2022-12-29T08:27:32.582Z,98474.09
2022-12-29T08:30:01.370Z,98477.69
2022-12-29T08:32:32.172Z,98475.34
2022-12-29T08:34:58.963Z,98485.53
2022-12-29T08:37:30.879Z,98479.50
2022-12-29T08:39:59.631Z,98481.28
2022-12-29T08:42:31.711Z,98473.56
2022-12-29T08:44:59.679Z,98477.19
2022-12-29T08:47:26.979Z,98479.44
2022-12-29T08:49:53.922Z,98490.78
2022-12-29T08:52:20.721Z,98474.41
2022-12-29T08:54:47.543Z,98467.22
2022-12-29T08:57:14.322Z,98465.81
2022-12-29T08:59:41.153Z,98473.44
2022-12-29T09:02:13.930Z,98467.81
2022-12-29T09:04:42.255Z,98474.31
2022-12-29T09:07:09.176Z,98469.25
2022-12-29T09:09:36.089Z,98475.34
2022-12-29T09:12:02.913Z,98487.44
2022-12-29T09:14:29.768Z,98482.28
2022-12-29T09:17:15.042Z,98492.72
2022-12-29T09:19:41.936Z,98495.31
2022-12-29T09:22:08.907Z,98498.88
2022-12-29T09:24:35.780Z,98507.50
2022-12-29T09:27:02.899Z,98494.72
2022-12-29T09:29:29.749Z,98503.91
2022-12-29T09:31:56.644Z,98507.50
2022-12-29T09:34:23.550Z,98503.84
2022-12-29T09:36:50.947Z,98507.41
2022-12-29T09:39:17.779Z,98515.00
2022-12-29T09:42:09.890Z,98505.97
2022-12-29T09:44:49.608Z,98506.78
2022-12-29T09:47:18.290Z,98510.84
2022-12-29T09:49:55.944Z,98498.22
2022-12-29T09:52:26.713Z,98500.06
2022-12-29T09:55:14.079Z,98492.38
2022-12-29T09:58:16.105Z,98501.88
2022-12-29T10:01:00.337Z,98498.00
2022-12-29T10:03:47.850Z,98488.59
2022-12-29T10:06:27.951Z,98490.28
2022-12-29T10:09:21.987Z,98500.47
2022-12-29T10:12:34.922Z,98494.19
2022-12-29T10:15:13.406Z,98493.59
2022-12-29T10:18:02.597Z,98497.53
2022-12-29T10:20:35.934Z,98491.50
2022-12-29T10:23:34.848Z,98491.59
2022-12-29T10:26:03.814Z,98504.41
2022-12-29T10:28:48.943Z,98514.22
2022-12-29T10:31:26.269Z,98511.81
2022-12-29T10:33:59.655Z,98507.94
2022-12-29T10:36:41.053Z,98496.53
2022-12-29T10:39:27.578Z,98506.28
2022-12-29T10:42:29.698Z,98506.81
2022-12-29T10:44:58.356Z,98506.81
2022-12-29T10:47:34.403Z,98506.72
2022-12-29T10:50:03.155Z,98501.25
2022-12-29T10:52:32.148Z,98491.06
2022-12-29T10:55:14.029Z,98494.22
2022-12-29T10:57:45.525Z,98499.22
2022-12-29T11:00:17.544Z,98473.81
2022-12-29T11:02:50.377Z,98492.28
2022-12-29T11:05:47.617Z,98507.84
2022-12-29T11:08:20.423Z,98500.13
2022-12-29T11:10:59.040Z,98500.22
2022-12-29T11:13:35.004Z,98499.22
2022-12-29T11:16:05.884Z,98502.72
2022-12-29T11:18:41.262Z,98494.56
2022-12-29T11:21:30.740Z,98491.78
2022-12-29T11:24:04.262Z,98494.91
2022-12-29T11:26:35.258Z,98496.66
2022-12-29T11:29:22.259Z,98498.50
2022-12-29T11:31:52.802Z,98497.31
2022-12-29T11:34:34.672Z,98499.13
2022-12-29T11:37:12.454Z,98505.47
2022-12-29T11:39:51.209Z,98497.84
2022-12-29T11:42:23.078Z,98504.78
2022-12-29T11:44:51.903Z,98513.22
2022-12-29T11:47:37.428Z,98508.00
2022-12-29T11:50:08.039Z,98505.63
2022-12-29T11:52:40.278Z,98511.94
2022-12-29T11:55:21.779Z,98512.09
2022-12-29T11:57:50.934Z,98512.09
2022-12-29T12:00:28.322Z,98508.13
2022-12-29T12:03:04.965Z,98495.66
2022-12-29T12:05:37.523Z,98505.81
2022-12-29T12:08:22.215Z,98510.25
2022-12-29T12:11:02.782Z,98493.38
2022-12-29T12:13:43.236Z,98501.34
2022-12-29T12:16:19.800Z,98499.31
2022-12-29T12:18:55.384Z,98497.72
2022-12-29T12:21:40.435Z,98494.13
2022-12-29T12:24:16.421Z,98500.41
2022-12-29T12:27:23.013Z,98503.22
2022-12-29T12:30:06.013Z,98506.81
2022-12-29T12:32:51.393Z,98521.41
2022-12-29T12:35:40.553Z,98514.47
2022-12-29T12:38:37.845Z,98513.59
2022-12-29T12:41:21.302Z,98492.13
2022-12-29T12:44:01.632Z,98502.03
2022-12-29T12:47:19.796Z,98509.94
2022-12-29T12:50:04.737Z,98505.72
2022-12-29T12:53:36.283Z,98508.69
2022-12-29T12:56:45.091Z,98486.00
2022-12-29T12:59:24.779Z,98490.34
2022-12-29T13:02:11.610Z,98491.19
2022-12-29T13:05:27.019Z,98489.97
2022-12-29T13:08:15.044Z,98488.75
2022-12-29T13:10:57.720Z,98478.56
2022-12-29T13:13:43.943Z,98477.81
2022-12-29T13:17:03.030Z,98482.72
2022-12-29T13:19:42.179Z,98478.47
2022-12-29T13:22:14.615Z,98490.59
2022-12-29T13:25:07.935Z,98486.06
2022-12-29T13:27:55.996Z,98479.41
2022-12-29T13:31:11.497Z,98477.53
2022-12-29T13:34:10.948Z,98479.19
2022-12-29T13:36:55.843Z,98479.84
2022-12-29T13:39:33.220Z,98484.28
2022-12-29T13:42:03.434Z,98486.22
2022-12-29T13:44:37.180Z,98463.63
2022-12-29T13:47:34.554Z,98483.16
2022-12-29T13:50:04.698Z,98474.34
2022-12-29T13:53:00.585Z,98475.00
2022-12-29T13:55:53.073Z,98464.25
2022-12-29T13:58:35.158Z,98465.91
2022-12-29T14:01:35.835Z,98472.91
2022-12-29T14:04:11.977Z,98471.94
2022-12-29T14:06:41.551Z,98460.06
2022-12-29T14:09:40.230Z,98466.31
2022-12-29T14:12:39.354Z,98464.00
2022-12-29T14:15:12.288Z,98464.84
2022-12-29T14:17:41.721Z,98456.31
2022-12-29T14:20:22.726Z,98460.91
2022-12-29T14:23:17.018Z,98461.75
2022-12-29T14:26:06.702Z,98463.22
2022-12-29T14:28:46.103Z,98463.13
2022-12-29T14:31:15.862Z,98464.47
2022-12-29T14:34:11.511Z,98469.81
2022-12-29T14:36:40.358Z,98460.28
2022-12-29T14:39:42.207Z,98470.03
2022-12-29T14:42:11.891Z,98464.63
2022-12-29T14:44:49.280Z,98465.69
2022-12-29T14:47:31.422Z,98462.25
2022-12-29T14:50:30.782Z,98467.06
2022-12-29T14:53:07.330Z,98473.56
2022-12-29T14:55:50.667Z,98468.47
2022-12-29T14:58:33.485Z,98466.03
2022-12-29T15:01:01.498Z,98466.16
2022-12-29T15:03:37.572Z,98458.97
2022-12-29T15:06:12.293Z,98468.00
2022-12-29T15:08:46.564Z,98463.75
2022-12-29T15:11:43.471Z,98460.41
2022-12-29T15:14:37.619Z,98465.81
2022-12-29T15:17:25.810Z,98474.53
2022-12-29T15:19:53.302Z,98461.81
2022-12-29T15:22:20.562Z,98445.25
2022-12-29T15:24:47.706Z,98461.19
2022-12-29T15:27:18.490Z,98460.53
2022-12-29T15:29:47.455Z,98464.16
2022-12-29T15:32:17.265Z,98470.28
2022-12-29T15:34:51.324Z,98466.22
2022-12-29T15:37:28.051Z,98469.72
2022-12-29T15:39:56.875Z,98477.41
2022-12-29T15:43:08.566Z,98468.16
2022-12-29T15:45:36.829Z,98470.84
2022-12-29T15:48:05.234Z,98474.56
2022-12-29T15:50:35.658Z,98472.16
2022-12-29T15:53:03.632Z,98482.34
2022-12-29T15:55:37.313Z,98483.94
2022-12-29T15:58:16.387Z,98484.94
2022-12-29T16:00:59.387Z,98460.47
2022-12-29T16:03:31.054Z,98476.06
2022-12-29T16:06:28.000Z,98496.53
2022-12-29T16:09:04.907Z,98495.50
2022-12-29T16:11:40.836Z,98501.63
2022-12-29T16:14:20.046Z,98494.03
2022-12-29T16:16:49.279Z,98499.22
2022-12-29T16:19:38.486Z,98509.50
2022-12-29T16:22:26.399Z,98517.28
2022-12-29T16:25:04.196Z,98513.88
2022-12-29T16:27:41.969Z,98514.78
2022-12-29T16:30:26.487Z,98531.19
2022-12-29T16:33:01.132Z,98526.84
2022-12-29T16:35:47.962Z,98532.19
2022-12-29T16:38:17.220Z,98530.72
2022-12-29T16:40:58.012Z,98530.84
2022-12-29T16:43:35.546Z,98540.16
2022-12-29T16:46:02.393Z,98537.59
2022-12-29T16:48:32.094Z,98538.63
2022-12-29T16:51:22.296Z,98540.28
2022-12-29T16:53:54.681Z,98539.53
2022-12-29T16:56:36.143Z,98543.97
2022-12-29T16:59:09.198Z,98551.00
2022-12-29T17:01:40.082Z,98551.00
2022-12-29T17:04:13.435Z,98549.44
2022-12-29T17:06:41.392Z,98552.22
2022-12-29T17:09:22.274Z,98548.88
2022-12-29T17:12:00.315Z,98554.16
2022-12-29T17:14:53.743Z,98555.91
2022-12-29T17:17:38.853Z,98559.53
2022-12-29T17:20:19.227Z,98563.13
2022-12-29T17:22:46.458Z,98566.66
2022-12-29T17:25:20.896Z,98557.00
2022-12-29T17:27:54.547Z,98571.25
2022-12-29T17:30:29.752Z,98567.00
2022-12-29T17:33:06.288Z,98567.19
2022-12-29T17:35:33.387Z,98559.19
2022-12-29T17:38:00.767Z,98576.91
2022-12-29T17:40:30.780Z,98561.28
2022-12-29T17:42:59.459Z,98593.44
2022-12-29T17:45:31.908Z,98591.78
2022-12-29T17:48:02.320Z,98593.63
2022-12-29T17:50:31.336Z,98572.75
2022-12-29T17:53:03.398Z,98595.47
2022-12-29T17:55:37.259Z,98590.47
2022-12-29T17:58:19.510Z,98592.22
2022-12-29T18:00:48.748Z,98591.50
2022-12-29T18:03:18.191Z,98583.78
2022-12-29T18:05:45.353Z,98580.47
2022-12-29T18:08:12.508Z,98576.28
2022-12-29T18:10:40.292Z,98572.13
2022-12-29T18:13:07.477Z,98574.75
2022-12-29T18:15:36.244Z,98575.66
2022-12-29T18:18:13.328Z,98575.75
2022-12-29T18:20:43.098Z,98581.13
2022-12-29T18:23:22.216Z,98574.25
2022-12-29T18:26:22.314Z,98569.25
2022-12-29T18:28:53.679Z,98569.44
2022-12-29T18:31:30.718Z,98581.81
2022-12-29T18:33:59.714Z,98579.56
2022-12-29T18:36:28.944Z,98582.72
2022-12-29T18:38:55.908Z,98593.66
2022-12-29T18:41:31.449Z,98583.97
2022-12-29T18:43:59.861Z,98618.25
2022-12-29T18:46:27.005Z,98620.34
2022-12-29T18:48:54.108Z,98598.53
2022-12-29T18:51:26.516Z,98610.50
2022-12-29T18:53:56.453Z,98616.59
2022-12-29T18:56:24.188Z,98616.69
2022-12-29T18:58:51.490Z,98624.28
2022-12-29T19:01:25.495Z,98622.63
2022-12-29T19:03:52.584Z,98631.06
2022-12-29T19:06:21.115Z,98626.28
2022-12-29T19:08:47.914Z,98623.69
2022-12-29T19:11:15.034Z,98629.03
2022-12-29T19:13:41.868Z,98633.28
2022-12-29T19:16:19.827Z,98638.34
2022-12-29T19:18:58.135Z,98613.41
2022-12-29T19:21:30.809Z,98645.19
2022-12-29T19:23:57.630Z,98612.25
2022-12-29T19:26:35.139Z,98636.66
2022-12-29T19:29:02.603Z,98625.63
2022-12-29T19:31:29.624Z,98632.47
2022-12-29T19:33:56.607Z,98638.47
2022-12-29T19:36:23.724Z,98630.47
2022-12-29T19:38:50.618Z,98625.28
2022-12-29T19:41:17.429Z,98640.81
2022-12-29T19:43:44.409Z,98624.44
2022-12-29T19:46:17.219Z,98626.53
2022-12-29T19:48:44.073Z,98636.13
2022-12-29T19:51:16.993Z,98632.78
2022-12-29T19:53:47.614Z,98628.53
2022-12-29T19:56:14.942Z,98638.63
2022-12-29T19:58:46.960Z,98635.97
2022-12-29T20:01:18.695Z,98643.41
2022-12-29T20:03:46.094Z,98636.50
2022-12-29T20:06:13.611Z,98636.41
2022-12-29T20:08:40.646Z,98643.41
2022-12-29T20:11:17.165Z,98639.13
2022-12-29T20:13:45.507Z,98640.06
2022-12-29T20:16:18.410Z,98635.22
2022-12-29T20:18:45.430Z,98642.75
2022-12-29T20:21:19.419Z,98648.00
2022-12-29T20:23:47.232Z,98652.59
2022-12-29T20:26:24.434Z,98663.03
2022-12-29T20:28:52.237Z,98664.97
2022-12-29T20:31:27.184Z,98671.38
2022-12-29T20:33:54.365Z,98664.50
2022-12-29T20:36:25.851Z,98668.00
2022-12-29T20:38:55.064Z,98677.44
2022-12-29T20:41:22.758Z,98667.50
2022-12-29T20:43:51.134Z,98667.13
2022-12-29T20:46:21.415Z,98686.59
2022-12-29T20:48:50.397Z,98681.34
2022-12-29T20:51:18.494Z,98689.19
2022-12-29T20:53:45.500Z,98690.13
2022-12-29T20:56:19.399Z,98695.13
2022-12-29T20:59:25.374Z,98687.38
2022-12-29T21:01:34.242Z,98690.72
2022-12-29T21:04:01.453Z,98691.56
2022-12-29T21:06:28.331Z,98703.66
2022-12-29T21:08:55.246Z,98711.44
2022-12-29T21:11:22.373Z,98710.59
2022-12-29T21:13:49.522Z,98730.56
2022-12-29T21:16:18.801Z,98716.81
2022-12-29T21:18:45.637Z,98740.63
2022-12-29T21:21:19.383Z,98740.16
2022-12-29T21:23:46.437Z,98746.16
2022-12-29T21:26:19.171Z,98742.59
2022-12-29T21:28:46.246Z,98750.13
2022-12-29T21:31:29.812Z,98754.41
2022-12-29T21:33:57.372Z,98750.56
2022-12-29T21:36:24.805Z,98757.09
2022-12-29T21:38:51.630Z,98762.28
2022-12-29T21:41:19.198Z,98768.31
2022-12-29T21:44:06.693Z,98778.38
2022-12-29T21:46:37.823Z,98775.97
2022-12-29T21:49:06.204Z,98775.19
2022-12-29T21:51:51.085Z,98740.13
2022-12-29T21:54:39.211Z,98767.81
2022-12-29T21:57:07.177Z,98782.69
2022-12-29T21:59:52.917Z,98782.25
2022-12-29T22:02:44.445Z,98782.19
2022-12-29T22:05:34.376Z,98775.91
2022-12-29T22:08:21.145Z,98766.50
2022-12-29T22:11:07.484Z,98758.59
2022-12-29T22:13:37.747Z,98754.41
2022-12-29T22:16:11.632Z,98750.56
2022-12-29T22:18:39.262Z,98764.34
2022-12-29T22:21:09.166Z,98770.94
2022-12-29T22:23:39.767Z,98775.63
2022-12-29T22:26:14.739Z,98773.81
2022-12-29T22:28:43.838Z,98775.47
2022-12-29T22:31:32.565Z,98786.78
2022-12-29T22:34:03.744Z,98792.09
2022-12-29T22:36:31.249Z,98782.34
2022-12-29T22:38:58.027Z,98752.41
2022-12-29T22:41:24.990Z,98715.53
2022-12-29T22:43:51.875Z,98796.91
2022-12-29T22:46:18.820Z,98800.91
2022-12-29T22:48:45.649Z,98767.22
2022-12-29T22:51:12.409Z,98814.59
2022-12-29T22:53:40.932Z,98808.56
2022-12-29T22:56:11.019Z,98826.06
2022-12-29T22:58:42.961Z,98815.84
2022-12-29T23:01:11.996Z,98817.53
2022-12-29T23:03:39.103Z,98793.28
2022-12-29T23:06:08.248Z,98829.56
2022-12-29T23:08:37.749Z,98799.03
2022-12-29T23:11:07.894Z,98816.41
2022-12-29T23:13:35.089Z,98827.44
2022-12-29T23:16:02.269Z,98838.72
2022-12-29T23:18:29.236Z,98825.81
2022-12-29T23:20:56.335Z,98838.91
2022-12-29T23:23:48.429Z,98837.44
2022-12-29T23:26:17.487Z,98846.41
2022-12-29T23:28:44.273Z,98843.41
2022-12-29T23:31:11.524Z,98842.19
2022-12-29T23:33:38.375Z,98846.41
2022-12-29T23:36:05.664Z,98834.59
2022-12-29T23:38:32.438Z,98841.44
2022-12-29T23:40:59.320Z,98859.63
2022-12-29T23:43:26.351Z,98868.13
2022-12-29T23:45:53.137Z,98867.16
2022-12-29T23:48:20.021Z,98865.34
2022-12-29T23:50:46.943Z,98871.28
2022-12-29T23:53:14.145Z,98863.53
2022-12-29T23:55:43.550Z,98867.78
2022-12-29T23:58:11.377Z,98872.84
